Velserdiep — PBLP — position and weather

sailwx.info

Track history (hours):
 
Tides and Currents Weather Stations Pressure Air Temp Water Temp Dewpoint Dewpoint Depression Visibility Wind Speed Wind Dir Waves Ship Positions

Velserdiep

Last reported at 2016-May-05 02:33 UTC. Time now 2016-May-05 02:56 UTC.
Position N 52°28' E 004°35'.

Length 120 m; draft 5 m.

Type: Cargo ship. MMSI: 244484000.

Date/timePositionNaut miles runAvg speedWind from/ knotsBaromVisibWave heightAir tempDewpointWater temp
2016-May-05 02:33N 52°28' E 004°35'0 0.0
2016-May-05 01:33N 52°28' E 004°35'0 0.0
2016-May-05 00:33N 52°28' E 004°35'0 0.0
2016-May-04 23:33N 52°28' E 004°35'0 0.0
2016-May-04 22:33N 52°28' E 004°35'0 0.0
2016-May-04 21:33N 52°28' E 004°35'0 0.0
2016-May-04 20:34N 52°28' E 004°35'0 0.0
2016-May-04 19:34N 52°28' E 004°35'0 0.0
2016-May-04 18:33N 52°28' E 004°35'0 0.0
2016-May-04 17:33N 52°28' E 004°35'0 0.0
2016-May-04 16:33N 52°28' E 004°35'0 0.0
2016-May-04 15:34N 52°28' E 004°35'0 0.0
2016-May-04 14:33N 52°28' E 004°35'0 0.0
2016-May-04 13:33N 52°28' E 004°35'0 0.0
2016-May-04 12:33N 52°28' E 004°35'0 0.0
2016-May-04 11:34N 52°28' E 004°35'0 0.0
2016-May-04 10:33N 52°28' E 004°35'5 4.8
2016-May-04 09:33N 52°25' E 004°28'7 7.4
2016-May-04 08:33N 52°19' E 004°20'7 6.9
2016-May-04 07:33N 52°14' E 004°14'7 6.7
2016-May-04 06:33N 52°08' E 004°07'7 7.1
2016-May-04 05:33N 52°03' E 003°60'7 7.3
2016-May-04 04:32N 51°57' E 003°52'43 8.4
2016-May-03 23:23N 51°25' E 003°06'8 9.2
2016-May-03 22:29N 51°18' E 002°58'1 0.8
2016-May-03 21:30N 51°18' E 002°58'2 2.0
2016-May-03 20:33N 51°17' E 002°55'0 0.4
2016-May-03 19:33N 51°17' E 002°55'0 0.0
2016-May-03 18:33N 51°17' E 002°55'0 0.0
2016-May-03 17:33N 51°17' E 002°55'1 0.6
2016-May-03 16:33N 51°17' E 002°54'1 0.9
2016-May-03 15:33N 51°17' E 002°55'2 1.7
2016-May-03 14:33N 51°18' E 002°58'7 6.4
2016-May-03 13:25N 51°21' E 003°08'8 9.0
2016-May-03 12:30N 51°23' E 003°21'8 8.6
2016-May-03 11:33N 51°24' E 003°34'0 0.4
2016-May-03 10:33N 51°24' E 003°34'0 0.0
2016-May-02 19:34N 51°24' E 003°34'0 0.0
2016-May-02 18:33N 51°24' E 003°34'0 0.0
2016-May-02 17:33N 51°24' E 003°34'0 0.0
2016-May-02 16:33N 51°24' E 003°34'0 0.0
2016-May-02 15:33N 51°24' E 003°34'0 0.0
2016-May-02 14:34N 51°24' E 003°34'3 2.9
2016-May-02 13:33N 51°25' E 003°29'5 5.4
2016-May-02 12:33N 51°23' E 003°21'5 4.5
2016-May-02 11:33N 51°22' E 003°14'1 0.6
2016-May-02 10:29N 51°22' E 003°13'4 2.1
2016-May-02 08:33N 51°21' E 003°07'1 0.9
2016-May-02 07:32N 51°20' E 003°08'3 3.2
2016-May-02 06:31N 51°20' E 003°03'1 1.0
2016-May-02 05:33N 51°19' E 003°03'1 0.9
2016-May-02 04:33N 51°20' E 003°02'2 1.9
2016-May-02 03:33N 51°20' E 003°05'0 0.0
2016-May-02 02:32N 51°20' E 003°05'0 0.0
2016-May-02 01:33N 51°20' E 003°05'0 0.0
2016-May-02 00:32N 51°20' E 003°05'0 0.1
2016-May-01 22:13N 51°20' E 003°04'0 0.0
2016-May-01 21:07N 51°20' E 003°04'1 1.0
2016-May-01 20:31N 51°20' E 003°03'1 0.9
2016-May-01 19:32N 51°19' E 003°02'1 0.7
2016-May-01 17:30N 51°19' E 003°00'0 0.0
2016-May-01 16:29N 51°19' E 003°00'0 0.0
2016-May-01 15:33N 51°19' E 003°00'0 0.0
2016-May-01 14:30N 51°19' E 003°00'1 0.9
2016-May-01 13:32N 51°20' E 003°01'3 3.0
2016-May-01 12:32N 51°21' E 003°06'0 0.5
2016-May-01 11:32N 51°21' E 003°07'1 0.6
2016-May-01 10:33N 51°21' E 003°06'1 1.1
2016-May-01 09:33N 51°21' E 003°07'45 7.5
2016-May-01 03:33N 51°57' E 003°53'9 9.1
2016-May-01 02:34N 52°03' E 004°03'9 9.0
2016-May-01 01:33N 52°10' E 004°12'8 7.9
2016-May-01 00:33N 52°17' E 004°19'7 7.2
2016-Apr-30 23:33N 52°23' E 004°26'7 6.7
2016-Apr-30 22:33N 52°28' E 004°33'1 1.3
2016-Apr-30 21:33N 52°28' E 004°35'0 0.0
2016-Apr-30 20:34N 52°28' E 004°35'0 0.0
2016-Apr-30 19:33N 52°28' E 004°35'0 0.0
2016-Apr-30 18:33N 52°28' E 004°35'0 0.0
2016-Apr-30 17:33N 52°28' E 004°35'0 0.0
2016-Apr-30 16:33N 52°28' E 004°35'  
Track history (hours):
 
Tides and Currents Weather Stations Pressure Air Temp Water Temp Dewpoint Dewpoint Depression Visibility Wind Speed Wind Dir Waves Ship Positions

Velserdiep

Last reported at 2016-May-05 02:33 UTC. Time now 2016-May-05 02:56 UTC.
Position N 52°28' E 004°35'.

Length 120 m; draft 5 m.

Type: Cargo ship. MMSI: 244484000.

Date/timePositionNaut miles runAvg speedWind from/ knotsBaromVisibWave heightAir tempDewpointWater temp
2016-May-05 02:33N 52°28' E 004°35'0 0.0
2016-May-05 01:33N 52°28' E 004°35'0 0.0
2016-May-05 00:33N 52°28' E 004°35'0 0.0
2016-May-04 23:33N 52°28' E 004°35'0 0.0
2016-May-04 22:33N 52°28' E 004°35'0 0.0
2016-May-04 21:33N 52°28' E 004°35'0 0.0
2016-May-04 20:34N 52°28' E 004°35'0 0.0
2016-May-04 19:34N 52°28' E 004°35'0 0.0
2016-May-04 18:33N 52°28' E 004°35'0 0.0
2016-May-04 17:33N 52°28' E 004°35'0 0.0
2016-May-04 16:33N 52°28' E 004°35'0 0.0
2016-May-04 15:34N 52°28' E 004°35'0 0.0
2016-May-04 14:33N 52°28' E 004°35'0 0.0
2016-May-04 13:33N 52°28' E 004°35'0 0.0
2016-May-04 12:33N 52°28' E 004°35'0 0.0
2016-May-04 11:34N 52°28' E 004°35'0 0.0
2016-May-04 10:33N 52°28' E 004°35'5 4.8
2016-May-04 09:33N 52°25' E 004°28'7 7.4
2016-May-04 08:33N 52°19' E 004°20'7 6.9
2016-May-04 07:33N 52°14' E 004°14'7 6.7
2016-May-04 06:33N 52°08' E 004°07'7 7.1
2016-May-04 05:33N 52°03' E 003°60'7 7.3
2016-May-04 04:32N 51°57' E 003°52'43 8.4
2016-May-03 23:23N 51°25' E 003°06'8 9.2
2016-May-03 22:29N 51°18' E 002°58'1 0.8
2016-May-03 21:30N 51°18' E 002°58'2 2.0
2016-May-03 20:33N 51°17' E 002°55'0 0.4
2016-May-03 19:33N 51°17' E 002°55'0 0.0
2016-May-03 18:33N 51°17' E 002°55'0 0.0
2016-May-03 17:33N 51°17' E 002°55'1 0.6
2016-May-03 16:33N 51°17' E 002°54'1 0.9
2016-May-03 15:33N 51°17' E 002°55'2 1.7
2016-May-03 14:33N 51°18' E 002°58'7 6.4
2016-May-03 13:25N 51°21' E 003°08'8 9.0
2016-May-03 12:30N 51°23' E 003°21'8 8.6
2016-May-03 11:33N 51°24' E 003°34'0 0.4
2016-May-03 10:33N 51°24' E 003°34'0 0.0
2016-May-02 19:34N 51°24' E 003°34'0 0.0
2016-May-02 18:33N 51°24' E 003°34'0 0.0
2016-May-02 17:33N 51°24' E 003°34'0 0.0
2016-May-02 16:33N 51°24' E 003°34'0 0.0
2016-May-02 15:33N 51°24' E 003°34'0 0.0
2016-May-02 14:34N 51°24' E 003°34'3 2.9
2016-May-02 13:33N 51°25' E 003°29'5 5.4
2016-May-02 12:33N 51°23' E 003°21'5 4.5
2016-May-02 11:33N 51°22' E 003°14'1 0.6
2016-May-02 10:29N 51°22' E 003°13'4 2.1
2016-May-02 08:33N 51°21' E 003°07'1 0.9
2016-May-02 07:32N 51°20' E 003°08'3 3.2
2016-May-02 06:31N 51°20' E 003°03'1 1.0
2016-May-02 05:33N 51°19' E 003°03'1 0.9
2016-May-02 04:33N 51°20' E 003°02'2 1.9
2016-May-02 03:33N 51°20' E 003°05'0 0.0
2016-May-02 02:32N 51°20' E 003°05'0 0.0
2016-May-02 01:33N 51°20' E 003°05'0 0.0
2016-May-02 00:32N 51°20' E 003°05'0 0.1
2016-May-01 22:13N 51°20' E 003°04'0 0.0
2016-May-01 21:07N 51°20' E 003°04'1 1.0
2016-May-01 20:31N 51°20' E 003°03'1 0.9
2016-May-01 19:32N 51°19' E 003°02'1 0.7
2016-May-01 17:30N 51°19' E 003°00'0 0.0
2016-May-01 16:29N 51°19' E 003°00'0 0.0
2016-May-01 15:33N 51°19' E 003°00'0 0.0
2016-May-01 14:30N 51°19' E 003°00'1 0.9
2016-May-01 13:32N 51°20' E 003°01'3 3.0
2016-May-01 12:32N 51°21' E 003°06'0 0.5
2016-May-01 11:32N 51°21' E 003°07'1 0.6
2016-May-01 10:33N 51°21' E 003°06'1 1.1
2016-May-01 09:33N 51°21' E 003°07'45 7.5
2016-May-01 03:33N 51°57' E 003°53'9 9.1
2016-May-01 02:34N 52°03' E 004°03'9 9.0
2016-May-01 01:33N 52°10' E 004°12'8 7.9
2016-May-01 00:33N 52°17' E 004°19'7 7.2
2016-Apr-30 23:33N 52°23' E 004°26'7 6.7
2016-Apr-30 22:33N 52°28' E 004°33'1 1.3
2016-Apr-30 21:33N 52°28' E 004°35'0 0.0
2016-Apr-30 20:34N 52°28' E 004°35'0 0.0
2016-Apr-30 19:33N 52°28' E 004°35'0 0.0
2016-Apr-30 18:33N 52°28' E 004°35'0 0.0
2016-Apr-30 17:33N 52°28' E 004°35'0 0.0
2016-Apr-30 16:33N 52°28' E 004°35'  

Dump ship's entire track history